Time;durP1;ratioP1;P1;durP2;ratioP2;P2;SDS_P1;SDS_P2;PMS_P1;PMS_P2;Temp;Humidity;BMP_temperature;BMP_pressure;BME280_temperature;BME280_humidity;BME280_pressure;Samples;Min_cycle;Max_cycle;Signal;HPM_P1;HPM_P2
2021/12/27 00:01:54;;;;;;;47.03;26.05;;;;;;;;;;5058603;27;93671;-70
2021/12/27 00:04:20;;;;;;;53.20;26.25;;;;;;;;;;5058786;27;93003;-70
2021/12/27 00:06:46;;;;;;;47.75;26.40;;;;;;;;;;5058188;27;92557;-72
2021/12/27 00:09:13;;;;;;;47.85;25.77;;;;;;;;;;5040417;27;93452;-70
2021/12/27 00:11:40;;;;;;;48.72;24.63;;;;;;;;;;5056684;27;95887;-70
2021/12/27 00:14:06;;;;;;;45.35;25.52;;;;;;;;;;5058183;27;92171;-70
2021/12/27 00:16:32;;;;;;;50.88;25.13;;;;;;;;;;5061334;27;93518;-70
2021/12/27 00:18:59;;;;;;;44.35;23.90;;;;;;;;;;5058195;27;92288;-70
2021/12/27 00:21:25;;;;;;;42.78;25.00;;;;;;;;;;5058045;27;93682;-71
2021/12/27 00:23:52;;;;;;;44.58;25.50;;;;;;;;;;5058077;27;92715;-71
2021/12/27 00:26:18;;;;;;;47.50;24.95;;;;;;;;;;5058049;27;92176;-70
2021/12/27 00:28:44;;;;;;;52.30;26.25;;;;;;;;;;5058787;27;93597;-70
2021/12/27 00:31:11;;;;;;;41.80;24.15;;;;;;;;;;5057261;27;93087;-71
2021/12/27 00:33:37;;;;;;;41.63;23.63;;;;;;;;;;5058053;27;92238;-70
2021/12/27 00:36:04;;;;;;;41.65;23.88;;;;;;;;;;5059036;27;94621;-71
2021/12/27 00:38:30;;;;;;;49.28;24.88;;;;;;;;;;5057891;27;92253;-70
2021/12/27 00:40:56;;;;;;;48.65;24.23;;;;;;;;;;5058069;27;92858;-70
2021/12/27 00:43:23;;;;;;;47.08;26.95;;;;;;;;;;5057708;27;92505;-70
2021/12/27 00:45:49;;;;;;;49.85;25.90;;;;;;;;;;5057765;27;92124;-71
2021/12/27 00:48:15;;;;;;;42.17;24.77;;;;;;;;;;5057703;27;93809;-71
2021/12/27 00:50:42;;;;;;;50.03;26.50;;;;;;;;;;5057201;27;93706;-71
2021/12/27 00:53:09;;;;;;;46.42;25.65;;;;;;;;;;5039941;27;92566;-71
2021/12/27 00:55:35;;;;;;;51.60;27.92;;;;;;;;;;5057945;27;92343;-70
2021/12/27 00:58:01;;;;;;;54.90;27.10;;;;;;;;;;5060870;27;94072;-70
2021/12/27 01:00:28;;;;;;;54.35;27.40;;;;;;;;;;5055824;27;94694;-70
2021/12/27 01:02:55;;;;;;;45.90;25.95;;;;;;;;;;5057253;27;93559;-70
2021/12/27 01:05:22;;;;;;;51.03;27.38;;;;;;;;;;5057527;27;93116;-70
2021/12/27 01:07:49;;;;;;;52.25;27.48;;;;;;;;;;5057621;27;92554;-70
2021/12/27 01:13:17;;;;;;;50.15;26.45;;;;;;;;;;5057199;27;92398;-71
2021/12/27 01:18:14;;;;;;;63.55;28.52;;;;;;;;;;5057788;27;92771;-70
2021/12/27 01:20:40;;;;;;;53.30;26.42;;;;;;;;;;5060430;27;92371;-70
2021/12/27 01:23:07;;;;;;;61.58;27.58;;;;;;;;;;5057104;27;93849;-70
2021/12/27 01:25:33;;;;;;;52.60;27.48;;;;;;;;;;5055662;27;94696;-70
2021/12/27 01:28:00;;;;;;;68.68;27.67;;;;;;;;;;5057036;27;96100;-70
2021/12/27 01:30:26;;;;;;;53.60;27.58;;;;;;;;;;5056727;27;93652;-70
2021/12/27 01:32:57;;;;;;;53.67;27.73;;;;;;;;;;5056903;27;92235;-70
2021/12/27 01:35:24;;;;;;;56.97;28.02;;;;;;;;;;5057296;27;93660;-70
2021/12/27 01:37:51;;;;;;;61.13;27.77;;;;;;;;;;5056889;27;93387;-70
2021/12/27 01:40:18;;;;;;;59.90;28.25;;;;;;;;;;5057101;27;92090;-70
2021/12/27 01:43:05;;;;;;;64.10;28.30;;;;;;;;;;5059983;27;94066;-70
2021/12/27 01:45:32;;;;;;;62.72;28.08;;;;;;;;;;5064288;27;92455;-70
2021/12/27 01:47:58;;;;;;;52.97;27.90;;;;;;;;;;5077409;27;93471;-70
2021/12/27 01:50:25;;;;;;;52.58;26.92;;;;;;;;;;5075614;27;96057;-69
2021/12/27 01:52:53;;;;;;;59.03;27.48;;;;;;;;;;5077342;27;92166;-70
2021/12/27 01:55:19;;;;;;;65.82;28.10;;;;;;;;;;5076804;27;93514;-69
2021/12/27 01:57:45;;;;;;;61.15;26.73;;;;;;;;;;5077003;27;93623;-69
2021/12/27 02:00:12;;;;;;;57.50;28.73;;;;;;;;;;5077349;27;92298;-69
2021/12/27 02:02:43;;;;;;;59.42;28.17;;;;;;;;;;5075565;27;92559;-69
2021/12/27 02:05:10;;;;;;;61.20;28.67;;;;;;;;;;5080316;27;93231;-69
2021/12/27 02:07:36;;;;;;;58.80;27.98;;;;;;;;;;5077838;27;93525;-69
2021/12/27 02:10:03;;;;;;;54.92;27.33;;;;;;;;;;5076393;27;93600;-69
2021/12/27 02:12:32;;;;;;;54.35;27.02;;;;;;;;;;5077086;27;92245;-69
2021/12/27 02:14:59;;;;;;;53.58;26.58;;;;;;;;;;5074941;27;94840;-69
2021/12/27 02:17:25;;;;;;;61.25;28.67;;;;;;;;;;5076925;27;93549;-69
2021/12/27 02:19:52;;;;;;;53.53;27.65;;;;;;;;;;5058566;27;92291;-69
2021/12/27 02:22:19;;;;;;;61.15;28.20;;;;;;;;;;5076764;27;94386;-69
2021/12/27 02:24:45;;;;;;;56.30;26.20;;;;;;;;;;5076338;27;93795;-69
2021/12/27 02:27:12;;;;;;;61.15;29.30;;;;;;;;;;5079496;27;92370;-69
2021/12/27 02:29:38;;;;;;;64.13;28.40;;;;;;;;;;5076928;27;93602;-69
2021/12/27 02:32:05;;;;;;;55.55;26.08;;;;;;;;;;5077215;27;91620;-69
2021/12/27 02:34:31;;;;;;;53.53;26.70;;;;;;;;;;5080724;27;92748;-69
2021/12/27 02:36:58;;;;;;;62.70;26.83;;;;;;;;;;5085719;27;93602;-70
2021/12/27 02:39:25;;;;;;;53.83;27.60;;;;;;;;;;5083965;27;94716;-69
2021/12/27 02:41:52;;;;;;;43.80;25.63;;;;;;;;;;5084885;27;98211;-69
2021/12/27 02:44:18;;;;;;;52.15;26.25;;;;;;;;;;5079715;27;93473;-69
2021/12/27 02:46:45;;;;;;;57.15;27.33;;;;;;;;;;5081411;27;92417;-69
2021/12/27 02:49:11;;;;;;;60.25;26.67;;;;;;;;;;5078490;27;93503;-69
2021/12/27 02:51:38;;;;;;;54.75;26.67;;;;;;;;;;5077116;27;92391;-70
2021/12/27 02:54:04;;;;;;;47.30;26.58;;;;;;;;;;5077878;27;92651;-69
2021/12/27 02:56:31;;;;;;;47.20;26.08;;;;;;;;;;5080612;27;92699;-69
2021/12/27 02:58:57;;;;;;;54.33;27.23;;;;;;;;;;5062286;27;92354;-69
2021/12/27 03:01:24;;;;;;;53.22;27.00;;;;;;;;;;5079934;27;93811;-70
2021/12/27 03:03:51;;;;;;;49.60;24.65;;;;;;;;;;5077852;27;95736;-69
2021/12/27 03:06:18;;;;;;;58.90;26.60;;;;;;;;;;5079461;27;92268;-70
2021/12/27 03:08:45;;;;;;;63.92;26.80;;;;;;;;;;5082921;27;93528;-70
2021/12/27 03:11:12;;;;;;;66.78;28.50;;;;;;;;;;5080001;27;92402;-70
2021/12/27 03:13:40;;;;;;;63.58;27.63;;;;;;;;;;5079825;27;93540;-70
2021/12/27 03:16:10;;;;;;;58.33;27.15;;;;;;;;;;5079522;27;93667;-70
2021/12/27 03:18:38;;;;;;;66.20;28.20;;;;;;;;;;5079780;27;92255;-69
2021/12/27 03:21:05;;;;;;;65.57;27.67;;;;;;;;;;5079740;27;93395;-69
2021/12/27 03:23:32;;;;;;;78.53;29.27;;;;;;;;;;5079595;27;93268;-70
2021/12/27 03:25:58;;;;;;;57.50;26.80;;;;;;;;;;5079418;27;92845;-70
2021/12/27 03:28:25;;;;;;;75.72;28.52;;;;;;;;;;5077950;27;94747;-69
2021/12/27 03:30:51;;;;;;;89.35;28.63;;;;;;;;;;5082571;27;93509;-70
2021/12/27 03:33:20;;;;;;;76.82;28.08;;;;;;;;;;5079063;27;93399;-70
2021/12/27 03:36:04;;;;;;;72.35;27.08;;;;;;;;;;5079326;27;93228;-69
2021/12/27 03:38:52;;;;;;;77.47;28.17;;;;;;;;;;5043924;27;92555;-70
2021/12/27 03:41:20;;;;;;;69.45;27.85;;;;;;;;;;5079371;27;93932;-70
2021/12/27 03:43:47;;;;;;;91.00;28.52;;;;;;;;;;5078747;27;93842;-70
2021/12/27 03:46:14;;;;;;;77.32;28.55;;;;;;;;;;5080353;27;91650;-69
2021/12/27 03:48:40;;;;;;;87.00;27.60;;;;;;;;;;5079451;27;92412;-69
2021/12/27 03:51:07;;;;;;;90.10;28.38;;;;;;;;;;5079169;27;93739;-69
2021/12/27 03:53:34;;;;;;;85.22;28.90;;;;;;;;;;5080370;27;94778;-69
2021/12/27 03:56:00;;;;;;;80.80;27.17;;;;;;;;;;5079044;27;93063;-69
2021/12/27 03:58:34;;;;;;;77.93;27.23;;;;;;;;;;5078785;27;92180;-70
2021/12/27 04:01:15;;;;;;;76.20;27.33;;;;;;;;;;5079297;27;93143;-69
2021/12/27 04:03:42;;;;;;;;;;;;;;;;;;5079207;27;93350;-70
2021/12/27 04:06:08;;;;;;;87.15;26.45;;;;;;;;;;5060546;27;118449;-69
2021/12/27 04:08:36;;;;;;;86.38;28.15;;;;;;;;;;5078914;27;93507;-70
2021/12/27 04:11:02;;;;;;;73.72;27.30;;;;;;;;;;5078942;27;91748;-69
2021/12/27 04:13:29;;;;;;;79.35;27.42;;;;;;;;;;5078559;27;93373;-69
2021/12/27 04:15:55;;;;;;;84.68;28.45;;;;;;;;;;5081475;27;93314;-69
2021/12/27 04:18:22;;;;;;;86.13;28.95;;;;;;;;;;5077021;27;94784;-69
2021/12/27 04:20:49;;;;;;;69.28;27.67;;;;;;;;;;5078910;27;96004;-69
2021/12/27 04:23:16;;;;;;;82.07;26.15;;;;;;;;;;5060779;27;93175;-69
2021/12/27 04:25:42;;;;;;;74.45;27.75;;;;;;;;;;5078356;27;92338;-69
2021/12/27 04:28:09;;;;;;;75.50;25.58;;;;;;;;;;5078506;27;92953;-69
2021/12/27 04:30:35;;;;;;;58.92;25.77;;;;;;;;;;5078526;27;93505;-69
2021/12/27 04:33:02;;;;;;;73.30;26.77;;;;;;;;;;5078517;27;92583;-69
2021/12/27 04:35:28;;;;;;;62.13;25.73;;;;;;;;;;5082184;27;93990;-69
2021/12/27 04:37:55;;;;;;;59.58;26.70;;;;;;;;;;5078428;27;92257;-70
2021/12/27 04:40:22;;;;;;;53.55;25.15;;;;;;;;;;5078011;27;93382;-69
2021/12/27 04:42:50;;;;;;;54.58;25.60;;;;;;;;;;5058213;27;96598;-69
2021/12/27 04:45:17;;;;;;;55.65;27.27;;;;;;;;;;5078758;27;93719;-69
2021/12/27 04:47:44;;;;;;;66.03;27.73;;;;;;;;;;5078240;27;93419;-69
2021/12/27 04:50:11;;;;;;;58.75;25.33;;;;;;;;;;5078216;27;93677;-69
2021/12/27 04:52:37;;;;;;;57.63;25.83;;;;;;;;;;5077477;27;92477;-69
2021/12/27 04:55:04;;;;;;;46.53;25.00;;;;;;;;;;5078010;27;93812;-69
2021/12/27 04:57:30;;;;;;;53.05;25.60;;;;;;;;;;5081188;27;94013;-69
2021/12/27 04:59:57;;;;;;;57.22;25.38;;;;;;;;;;5078511;27;91881;-69
2021/12/27 05:02:23;;;;;;;50.10;23.70;;;;;;;;;;5077993;27;93173;-69
2021/12/27 05:04:50;;;;;;;44.60;23.52;;;;;;;;;;5078094;27;92321;-69
2021/12/27 05:07:16;;;;;;;44.17;23.48;;;;;;;;;;5076003;27;94678;-69
2021/12/27 05:09:42;;;;;;;46.10;24.50;;;;;;;;;;5077827;27;93714;-69
2021/12/27 05:12:09;;;;;;;42.47;22.60;;;;;;;;;;5078008;27;92361;-69
2021/12/27 05:14:35;;;;;;;48.85;23.58;;;;;;;;;;5077620;27;94196;-69
2021/12/27 05:17:02;;;;;;;57.05;24.15;;;;;;;;;;5077270;27;93049;-69
2021/12/27 05:19:28;;;;;;;61.03;24.05;;;;;;;;;;5081003;27;92368;-69
2021/12/27 05:21:55;;;;;;;58.38;23.52;;;;;;;;;;5077237;27;93736;-69
2021/12/27 05:24:22;;;;;;;57.33;23.77;;;;;;;;;;5078220;27;91657;-69
2021/12/27 05:26:49;;;;;;;57.25;24.52;;;;;;;;;;5077651;27;92865;-70
2021/12/27 05:29:17;;;;;;;80.55;25.55;;;;;;;;;;5077284;27;93790;-70
2021/12/27 05:31:43;;;;;;;66.32;26.27;;;;;;;;;;5076134;27;94709;-70
2021/12/27 05:34:10;;;;;;;68.18;24.63;;;;;;;;;;5077407;27;95724;-69
2021/12/27 05:36:38;;;;;;;79.68;25.52;;;;;;;;;;5059145;27;93936;-74
2021/12/27 05:39:04;;;;;;;72.10;25.38;;;;;;;;;;5077453;27;92547;-74
2021/12/27 05:41:31;;;;;;;76.78;25.88;;;;;;;;;;5080143;27;93319;-70
2021/12/27 05:43:57;;;;;;;88.70;26.33;;;;;;;;;;5077506;27;92323;-70
2021/12/27 05:46:23;;;;;;;100.65;26.48;;;;;;;;;;5077415;27;93457;-70
2021/12/27 05:48:50;;;;;;;128.23;28.70;;;;;;;;;;5077683;27;93020;-70
2021/12/27 05:51:16;;;;;;;102.63;26.25;;;;;;;;;;5076908;27;92487;-71
2021/12/27 05:53:43;;;;;;;93.18;27.75;;;;;;;;;;5077032;27;93576;-70
2021/12/27 05:56:09;;;;;;;87.22;27.50;;;;;;;;;;5075459;27;95999;-70
2021/12/27 05:58:35;;;;;;;108.20;29.60;;;;;;;;;;5077146;27;92468;-70
2021/12/27 06:01:02;;;;;;;114.05;28.92;;;;;;;;;;5077162;27;93830;-70
2021/12/27 06:03:28;;;;;;;125.45;28.90;;;;;;;;;;5079840;27;93738;-71
2021/12/27 06:05:55;;;;;;;126.63;29.85;;;;;;;;;;5076708;27;93825;-70
2021/12/27 06:08:21;;;;;;;176.48;30.52;;;;;;;;;;5076831;27;93809;-69
2021/12/27 06:10:47;;;;;;;126.68;31.20;;;;;;;;;;5076843;27;92310;-70
2021/12/27 06:13:14;;;;;;;166.27;30.75;;;;;;;;;;5077417;27;93551;-70
2021/12/27 06:15:40;;;;;;;147.20;31.33;;;;;;;;;;5076496;27;93781;-70
2021/12/27 06:18:06;;;;;;;137.18;30.45;;;;;;;;;;5076777;27;92233;-69
2021/12/27 06:20:33;;;;;;;116.30;29.15;;;;;;;;;;5075549;27;95024;-70
2021/12/27 06:22:59;;;;;;;151.43;31.77;;;;;;;;;;5077049;27;92267;-70
2021/12/27 06:25:26;;;;;;;118.13;30.88;;;;;;;;;;5079860;27;92190;-70
2021/12/27 06:27:52;;;;;;;116.00;30.58;;;;;;;;;;5076541;27;93545;-69
2021/12/27 06:30:20;;;;;;;70.63;28.00;;;;;;;;;;5079503;27;92377;-70
2021/12/27 06:32:46;;;;;;;120.78;30.80;;;;;;;;;;5080020;27;93104;-70
2021/12/27 06:35:13;;;;;;;104.35;29.35;;;;;;;;;;5079950;27;93571;-69
2021/12/27 06:37:40;;;;;;;112.03;29.77;;;;;;;;;;5080992;27;91657;-69
2021/12/27 06:40:08;;;;;;;70.57;28.20;;;;;;;;;;5080324;27;92237;-71
2021/12/27 06:42:35;;;;;;;96.30;28.88;;;;;;;;;;5080051;27;93839;-74
2021/12/27 06:45:01;;;;;;;106.60;29.13;;;;;;;;;;5081701;27;94615;-74
2021/12/27 06:47:27;;;;;;;111.88;27.95;;;;;;;;;;5079803;27;93631;-70
2021/12/27 06:49:54;;;;;;;113.40;29.00;;;;;;;;;;5086081;27;92166;-70
2021/12/27 06:52:21;;;;;;;69.75;27.23;;;;;;;;;;5087809;27;93690;-70
2021/12/27 06:54:47;;;;;;;143.45;29.17;;;;;;;;;;5080873;27;93781;-70
2021/12/27 06:57:14;;;;;;;116.00;26.67;;;;;;;;;;5081949;27;92483;-69
2021/12/27 06:59:45;;;;;;;86.77;26.13;;;;;;;;;;5080437;27;92887;-69
2021/12/27 07:02:11;;;;;;;125.20;28.00;;;;;;;;;;5079991;27;94114;-69
2021/12/27 07:04:38;;;;;;;88.53;27.33;;;;;;;;;;5079803;27;92310;-69
2021/12/27 07:07:04;;;;;;;173.40;30.63;;;;;;;;;;5065154;27;93727;-69
2021/12/27 07:09:31;;;;;;;147.60;32.50;;;;;;;;;;5078145;27;94734;-69
2021/12/27 07:11:57;;;;;;;157.77;28.98;;;;;;;;;;5079702;27;96021;-70
2021/12/27 07:14:27;;;;;;;82.95;25.85;;;;;;;;;;5079210;27;93066;-71
2021/12/27 07:16:53;;;;;;;101.45;29.42;;;;;;;;;;5079439;27;92368;-70
2021/12/27 07:19:20;;;;;;;111.38;28.08;;;;;;;;;;5079557;27;93643;-71
2021/12/27 07:21:46;;;;;;;182.00;31.63;;;;;;;;;;5079505;27;93591;-72
2021/12/27 07:24:12;;;;;;;157.68;30.13;;;;;;;;;;5079554;27;92318;-71
2021/12/27 07:26:39;;;;;;;134.52;29.63;;;;;;;;;;5039873;27;93873;-72
2021/12/27 07:29:05;;;;;;;185.35;31.95;;;;;;;;;;5053703;27;94651;-70
2021/12/27 07:31:32;;;;;;;288.58;34.92;;;;;;;;;;5060566;27;93613;-70
2021/12/27 07:34:00;;;;;;;92.03;27.92;;;;;;;;;;5057095;27;95849;-71
2021/12/27 07:36:28;;;;;;;207.38;32.72;;;;;;;;;;5059104;27;92283;-69
2021/12/27 07:38:55;;;;;;;230.32;33.55;;;;;;;;;;5059072;27;94027;-71
2021/12/27 07:41:21;;;;;;;161.45;32.55;;;;;;;;;;5058319;27;93717;-70
2021/12/27 07:43:48;;;;;;;213.43;31.80;;;;;;;;;;5058399;27;92260;-70
2021/12/27 07:46:17;;;;;;;89.18;27.40;;;;;;;;;;5058880;27;93383;-70
2021/12/27 07:48:44;;;;;;;79.80;26.75;;;;;;;;;;5058789;27;93442;-70
2021/12/27 07:51:10;;;;;;;152.48;29.52;;;;;;;;;;5062376;27;91762;-70
2021/12/27 07:53:37;;;;;;;186.40;32.58;;;;;;;;;;5058284;27;93997;-70
2021/12/27 07:56:03;;;;;;;91.13;27.48;;;;;;;;;;5058617;27;92339;-70
2021/12/27 07:58:29;;;;;;;76.65;25.50;;;;;;;;;;5056617;27;94854;-71
2021/12/27 08:00:56;;;;;;;102.20;27.92;;;;;;;;;;5058725;27;93199;-72
2021/12/27 08:03:22;;;;;;;123.78;29.23;;;;;;;;;;5058109;27;92377;-71
2021/12/27 08:05:49;;;;;;;71.35;26.17;;;;;;;;;;5058331;27;93185;-71
2021/12/27 08:08:15;;;;;;;60.03;26.52;;;;;;;;;;5058079;27;93716;-71
2021/12/27 08:10:42;;;;;;;58.10;25.33;;;;;;;;;;5058102;27;92427;-70
2021/12/27 08:13:09;;;;;;;69.60;25.48;;;;;;;;;;5060937;27;93465;-70
2021/12/27 08:15:35;;;;;;;83.38;25.60;;;;;;;;;;5058017;27;91581;-69
2021/12/27 08:18:02;;;;;;;58.40;24.85;;;;;;;;;;5058103;27;92501;-70
2021/12/27 08:20:28;;;;;;;84.63;26.35;;;;;;;;;;5057867;27;93604;-69
2021/12/27 08:22:54;;;;;;;104.13;27.20;;;;;;;;;;5056716;27;94671;-69
2021/12/27 08:25:21;;;;;;;73.25;27.23;;;;;;;;;;5058109;27;96557;-70
2021/12/27 08:27:47;;;;;;;102.82;27.55;;;;;;;;;;5057340;27;93239;-69
2021/12/27 08:30:17;;;;;;;57.35;25.80;;;;;;;;;;5072978;27;92603;-70
2021/12/27 08:32:46;;;;;;;86.82;27.27;;;;;;;;;;5092829;27;92912;-70
2021/12/27 08:35:13;;;;;;;98.53;29.13;;;;;;;;;;5092934;27;93586;-71
2021/12/27 08:37:40;;;;;;;64.18;26.55;;;;;;;;;;5078835;27;92795;-70
2021/12/27 08:40:07;;;;;;;92.63;27.92;;;;;;;;;;5078133;27;92634;-70
2021/12/27 08:42:33;;;;;;;61.85;26.30;;;;;;;;;;5060368;27;92308;-68
2021/12/27 08:45:00;;;;;;;102.85;28.67;;;;;;;;;;5078443;27;93440;-70
2021/12/27 08:47:26;;;;;;;101.18;29.15;;;;;;;;;;5076356;27;95849;-70
2021/12/27 08:49:53;;;;;;;123.50;29.13;;;;;;;;;;5077955;27;92240;-70
2021/12/27 08:52:32;;;;;;;94.72;29.67;;;;;;;;;;5076063;27;93081;-71
2021/12/27 08:55:01;;;;;;;91.82;28.73;;;;;;;;;;5080773;27;94691;-70
2021/12/27 08:57:30;;;;;;;99.45;29.70;;;;;;;;;;5078036;27;93581;-70
2021/12/27 08:59:56;;;;;;;87.10;28.92;;;;;;;;;;5059546;27;95147;-71
2021/12/27 09:02:22;;;;;;;91.72;28.45;;;;;;;;;;5076066;27;92585;-71
2021/12/27 09:04:50;;;;;;;89.15;29.10;;;;;;;;;;5066504;27;93607;-72
2021/12/27 09:07:18;;;;;;;67.35;28.52;;;;;;;;;;5070845;27;93197;-71
2021/12/27 09:09:44;;;;;;;64.75;27.08;;;;;;;;;;5057510;27;92186;-71
2021/12/27 09:12:11;;;;;;;75.70;29.63;;;;;;;;;;5067752;27;94679;-71
2021/12/27 09:14:38;;;;;;;66.20;27.48;;;;;;;;;;5077182;27;93415;-69
2021/12/27 09:17:04;;;;;;;62.58;27.20;;;;;;;;;;5061862;27;92472;-69
2021/12/27 09:19:31;;;;;;;61.67;26.40;;;;;;;;;;5058931;27;93400;-72
2021/12/27 09:21:57;;;;;;;64.30;28.13;;;;;;;;;;5076833;27;92922;-71
2021/12/27 09:24:24;;;;;;;63.40;27.85;;;;;;;;;;5080140;27;93488;-70
2021/12/27 09:26:50;;;;;;;62.47;28.90;;;;;;;;;;5066250;27;92751;-70
2021/12/27 09:29:16;;;;;;;53.90;25.27;;;;;;;;;;5066233;27;92833;-69
2021/12/27 09:31:43;;;;;;;49.85;26.75;;;;;;;;;;5059271;27;92901;-69
2021/12/27 09:34:09;;;;;;;59.63;27.08;;;;;;;;;;5063380;27;93316;-70
2021/12/27 09:36:35;;;;;;;61.10;27.10;;;;;;;;;;5039597;27;95086;-71
2021/12/27 09:39:03;;;;;;;58.75;26.80;;;;;;;;;;5080559;27;95440;-71
2021/12/27 09:41:29;;;;;;;70.20;28.70;;;;;;;;;;5073724;27;92133;-71
2021/12/27 09:43:56;;;;;;;54.08;27.30;;;;;;;;;;5057091;27;93391;-70
2021/12/27 09:46:22;;;;;;;56.88;26.33;;;;;;;;;;5056726;27;93410;-71
2021/12/27 09:48:51;;;;;;;66.53;28.23;;;;;;;;;;5056668;27;92170;-72
2021/12/27 09:51:17;;;;;;;60.25;27.58;;;;;;;;;;5056886;27;93809;-71
2021/12/27 09:53:44;;;;;;;60.88;28.95;;;;;;;;;;5057074;27;93282;-71
2021/12/27 09:56:11;;;;;;;56.33;28.25;;;;;;;;;;5056769;27;92298;-70
2021/12/27 09:58:38;;;;;;;53.95;26.27;;;;;;;;;;5056764;27;93370;-70
2021/12/27 10:01:06;;;;;;;57.03;26.77;;;;;;;;;;5058148;27;95966;-73
2021/12/27 10:03:49;;;;;;;48.22;24.35;;;;;;;;;;5055821;27;95835;-71
2021/12/27 10:06:17;;;;;;;49.53;26.00;;;;;;;;;;5038423;27;95435;-70
2021/12/27 10:08:50;;;;;;;50.72;26.30;;;;;;;;;;5056729;27;92279;-70
2021/12/27 10:11:36;;;;;;;56.72;27.23;;;;;;;;;;5056409;27;93917;-71
2021/12/27 10:14:02;;;;;;;43.97;25.05;;;;;;;;;;5037663;27;94648;-73
2021/12/27 10:16:30;;;;;;;46.55;25.80;;;;;;;;;;5056346;27;92264;-71
2021/12/27 10:18:58;;;;;;;49.63;25.80;;;;;;;;;;5056766;27;93437;-71
2021/12/27 10:21:25;;;;;;;43.53;24.63;;;;;;;;;;5056442;27;93328;-72
2021/12/27 10:24:06;;;;;;;47.45;26.20;;;;;;;;;;5059544;27;92293;-71
2021/12/27 10:26:34;;;;;;;45.03;25.60;;;;;;;;;;5053614;27;96149;-72
2021/12/27 10:29:06;;;;;;;45.40;24.98;;;;;;;;;;5056585;27;92331;-73
2021/12/27 10:31:50;;;;;;;43.60;25.05;;;;;;;;;;5056442;27;93363;-73
2021/12/27 10:34:16;;;;;;;45.03;25.83;;;;;;;;;;5056010;27;93643;-73
2021/12/27 10:37:02;;;;;;;40.33;24.30;;;;;;;;;;5056505;27;92272;-76
2021/12/27 10:39:41;;;;;;;47.45;24.15;;;;;;;;;;5056100;27;93547;-74
2021/12/27 10:42:08;;;;;;;38.28;23.65;;;;;;;;;;5056136;27;93936;-76
2021/12/27 10:44:35;;;;;;;36.38;23.70;;;;;;;;;;5056786;27;91408;-71
2021/12/27 10:47:03;;;;;;;34.55;23.17;;;;;;;;;;5060073;27;92682;-71
2021/12/27 10:49:45;;;;;;;37.72;23.05;;;;;;;;;;5058787;27;92254;-71
2021/12/27 10:52:12;;;;;;;36.33;21.52;;;;;;;;;;5057486;27;94783;-71
2021/12/27 10:54:38;;;;;;;31.33;19.52;;;;;;;;;;5060705;27;94035;-71
2021/12/27 10:57:04;;;;;;;28.27;20.30;;;;;;;;;;5056552;27;92361;-74
2021/12/27 10:59:31;;;;;;;29.92;19.77;;;;;;;;;;5057216;27;93425;-72
2021/12/27 11:02:07;;;;;;;28.23;20.65;;;;;;;;;;5055572;27;93682;-72
2021/12/27 11:04:33;;;;;;;28.73;19.77;;;;;;;;;;5056117;27;92171;-71
2021/12/27 11:07:00;;;;;;;29.02;20.25;;;;;;;;;;5058880;27;93531;-71
2021/12/27 11:09:26;;;;;;;29.05;20.73;;;;;;;;;;5056173;27;91625;-72
2021/12/27 11:11:53;;;;;;;28.73;20.65;;;;;;;;;;5055935;27;93044;-72
2021/12/27 11:14:20;;;;;;;33.22;20.75;;;;;;;;;;5055385;27;93547;-72
2021/12/27 11:16:47;;;;;;;27.70;19.30;;;;;;;;;;5057407;27;94899;-72
2021/12/27 11:19:13;;;;;;;30.38;20.50;;;;;;;;;;5059099;27;96276;-71
2021/12/27 11:21:44;;;;;;;30.27;20.52;;;;;;;;;;5059076;27;92661;-72
2021/12/27 11:24:11;;;;;;;25.88;18.10;;;;;;;;;;5059530;27;92174;-70
2021/12/27 11:26:39;;;;;;;29.55;19.15;;;;;;;;;;5058934;27;93505;-71
2021/12/27 11:29:13;;;;;;;25.13;17.75;;;;;;;;;;5061728;27;93465;-73
2021/12/27 11:31:40;;;;;;;25.08;18.00;;;;;;;;;;5059131;27;93410;-73
2021/12/27 11:34:07;;;;;;;26.00;17.42;;;;;;;;;;5059532;27;91996;-72
2021/12/27 11:36:37;;;;;;;24.20;17.75;;;;;;;;;;5059019;27;92388;-72
2021/12/27 11:39:22;;;;;;;23.65;16.67;;;;;;;;;;5059051;27;93346;-72
2021/12/27 11:42:03;;;;;;;28.02;17.13;;;;;;;;;;5056602;27;96062;-71
2021/12/27 11:44:34;;;;;;;22.60;17.15;;;;;;;;;;5058988;27;92370;-72
2021/12/27 11:47:00;;;;;;;22.33;16.20;;;;;;;;;;5058909;27;93536;-71
2021/12/27 11:49:36;;;;;;;19.05;15.25;;;;;;;;;;5058701;27;93750;-71
2021/12/27 11:52:14;;;;;;;20.67;15.60;;;;;;;;;;5061261;27;92263;-73
2021/12/27 11:54:48;;;;;;;24.25;15.38;;;;;;;;;;5058572;27;93652;-72
2021/12/27 11:57:33;;;;;;;20.50;15.30;;;;;;;;;;5058896;27;92154;-73
2021/12/27 12:00:00;;;;;;;21.30;14.70;;;;;;;;;;5059033;27;93884;-72
2021/12/27 12:02:26;;;;;;;21.05;15.85;;;;;;;;;;5058098;27;93766;-73
2021/12/27 12:04:54;;;;;;;19.58;15.00;;;;;;;;;;5058543;27;92276;-72
2021/12/27 12:07:33;;;;;;;22.05;16.02;;;;;;;;;;5057328;27;94702;-72
2021/12/27 12:10:04;;;;;;;21.75;15.45;;;;;;;;;;5058410;27;93205;-72
2021/12/27 12:12:31;;;;;;;16.70;14.52;;;;;;;;;;5058373;27;92438;-71
2021/12/27 12:15:06;;;;;;;21.15;15.07;;;;;;;;;;5060144;27;94385;-72
2021/12/27 12:17:48;;;;;;;20.17;15.90;;;;;;;;;;5058515;27;92310;-72
2021/12/27 12:20:41;;;;;;;21.67;14.75;;;;;;;;;;5058379;27;92709;-71
2021/12/27 12:23:08;;;;;;;18.15;15.23;;;;;;;;;;5054091;27;94266;-71
2021/12/27 12:25:35;;;;;;;21.52;15.60;;;;;;;;;;5058205;27;91611;-72
2021/12/27 12:28:01;;;;;;;20.35;15.27;;;;;;;;;;5056708;27;93977;-72
2021/12/27 12:30:32;;;;;;;19.77;15.30;;;;;;;;;;5057933;27;93652;-72
2021/12/27 12:33:06;;;;;;;20.88;15.18;;;;;;;;;;5056672;27;94667;-72
2021/12/27 12:35:34;;;;;;;21.70;13.88;;;;;;;;;;5040070;27;95571;-73
2021/12/27 12:38:12;;;;;;;17.60;14.00;;;;;;;;;;5060679;27;93706;-71
2021/12/27 12:40:38;;;;;;;18.63;14.23;;;;;;;;;;5057754;27;93233;-73
2021/12/27 12:43:05;;;;;;;17.95;14.30;;;;;;;;;;5057874;27;93195;-73
2021/12/27 12:45:37;;;;;;;18.73;14.52;;;;;;;;;;5040224;27;92419;-71
2021/12/27 12:48:04;;;;;;;19.85;14.05;;;;;;;;;;5057783;27;93316;-73
2021/12/27 12:50:31;;;;;;;23.48;15.10;;;;;;;;;;5057787;27;92967;-72
2021/12/27 12:52:59;;;;;;;19.27;13.80;;;;;;;;;;5057866;27;92851;-72
2021/12/27 12:55:27;;;;;;;22.13;15.05;;;;;;;;;;5057580;27;93821;-73
2021/12/27 12:57:54;;;;;;;18.45;14.82;;;;;;;;;;5055766;27;95887;-72
2021/12/27 13:00:21;;;;;;;19.95;14.95;;;;;;;;;;5060330;27;92355;-72
2021/12/27 13:02:47;;;;;;;22.92;14.50;;;;;;;;;;5057379;27;93813;-72
2021/12/27 13:05:18;;;;;;;20.75;14.52;;;;;;;;;;5057133;27;92460;-73
2021/12/27 13:07:49;;;;;;;20.02;14.10;;;;;;;;;;5057801;27;93080;-74
2021/12/27 13:10:31;;;;;;;21.97;15.57;;;;;;;;;;5057458;27;93604;-74
2021/12/27 13:12:59;;;;;;;22.80;13.55;;;;;;;;;;5057487;27;92319;-74
2021/12/27 13:15:30;;;;;;;17.73;14.07;;;;;;;;;;5040006;27;92873;-71
2021/12/27 13:18:05;;;;;;;20.30;14.63;;;;;;;;;;5057221;27;92745;-73
2021/12/27 13:20:33;;;;;;;18.88;14.18;;;;;;;;;;5060501;27;92257;-72
2021/12/27 13:23:02;;;;;;;18.00;14.35;;;;;;;;;;5055460;27;95976;-73
2021/12/27 13:25:54;;;;;;;19.08;14.35;;;;;;;;;;5057017;27;92378;-73
2021/12/27 13:28:23;;;;;;;16.65;14.20;;;;;;;;;;5055457;27;92841;-73
2021/12/27 13:30:52;;;;;;;19.77;14.20;;;;;;;;;;5057082;27;93613;-76
2021/12/27 13:33:21;;;;;;;20.25;14.60;;;;;;;;;;5057454;27;92257;-74
2021/12/27 13:35:47;;;;;;;15.70;13.80;;;;;;;;;;5057184;27;93373;-74
2021/12/27 13:38:25;;;;;;;17.73;14.68;;;;;;;;;;5056671;27;93909;-73
2021/12/27 13:40:53;;;;;;;17.08;13.55;;;;;;;;;;5057783;27;91518;-74
2021/12/27 13:43:20;;;;;;;18.50;14.65;;;;;;;;;;5059892;27;92679;-74
2021/12/27 13:45:46;;;;;;;19.27;16.00;;;;;;;;;;5057051;27;92331;-73
2021/12/27 13:48:13;;;;;;;25.67;17.85;;;;;;;;;;5055645;27;94797;-73
2021/12/27 13:50:42;;;;;;;22.58;16.52;;;;;;;;;;5056836;27;93554;-74
2021/12/27 13:53:13;;;;;;;24.33;17.38;;;;;;;;;;5077766;27;92456;-74
2021/12/27 13:55:40;;;;;;;22.95;17.83;;;;;;;;;;5098151;27;93430;-74
2021/12/27 13:58:13;;;;;;;18.25;15.32;;;;;;;;;;5097915;27;93700;-74
2021/12/27 14:00:40;;;;;;;21.70;15.63;;;;;;;;;;5080827;27;92913;-74
2021/12/27 14:03:22;;;;;;;23.67;15.52;;;;;;;;;;5077433;27;93683;-74
2021/12/27 14:05:53;;;;;;;18.15;14.25;;;;;;;;;;5080552;27;93100;-74
2021/12/27 14:08:21;;;;;;;18.13;14.77;;;;;;;;;;5077184;27;92752;-73
2021/12/27 14:11:00;;;;;;;19.17;14.18;;;;;;;;;;5077235;27;93935;-74
2021/12/27 14:13:45;;;;;;;19.02;14.18;;;;;;;;;;5075320;27;94688;-74
2021/12/27 14:16:21;;;;;;;19.77;14.90;;;;;;;;;;5093975;27;95742;-74
2021/12/27 14:18:59;;;;;;;20.17;13.98;;;;;;;;;;5097835;27;93472;-74
2021/12/27 14:21:26;;;;;;;18.08;13.48;;;;;;;;;;5063417;27;93598;-75
2021/12/27 14:24:06;;;;;;;19.45;15.02;;;;;;;;;;5065942;27;93486;-75
2021/12/27 14:26:34;;;;;;;19.67;14.40;;;;;;;;;;5055970;27;94054;-74
2021/12/27 14:29:26;;;;;;;18.00;14.68;;;;;;;;;;5059556;27;92153;-75